createdAt,value
2023-03-11T00:04:27.366Z,75.90
2023-03-11T00:09:33.612Z,80.07
2023-03-11T00:14:39.790Z,82.43
2023-03-11T00:19:45.984Z,93.25
2023-03-11T00:24:51.896Z,75.43
2023-03-11T00:35:03.619Z,98.35
2023-03-11T00:45:19.117Z,81.85
2023-03-11T00:50:29.243Z,72.85
2023-03-11T00:55:37.546Z,85.55
2023-03-11T01:01:33.842Z,78.15
2023-03-11T01:07:04.389Z,95.90
2023-03-11T01:12:36.376Z,79.75
2023-03-11T01:17:42.361Z,86.60
2023-03-11T01:22:48.723Z,73.68
2023-03-11T01:27:54.890Z,74.80
2023-03-11T01:33:01.043Z,86.88
2023-03-11T01:38:07.340Z,77.63
2023-03-11T01:43:41.332Z,88.07
2023-03-11T01:48:58.881Z,81.65
2023-03-11T01:54:25.674Z,74.18
2023-03-11T01:59:40.051Z,86.93
2023-03-11T02:04:46.235Z,63.00
2023-03-11T02:09:53.542Z,76.80
2023-03-11T02:15:00.650Z,75.72
2023-03-11T02:25:18.150Z,75.38
2023-03-11T02:30:28.207Z,82.93
2023-03-11T02:35:34.486Z,76.22
2023-03-11T02:40:51.277Z,86.75
2023-03-11T02:45:59.810Z,71.97
2023-03-11T02:51:06.858Z,78.57
2023-03-11T02:56:14.369Z,75.25
2023-03-11T03:01:21.232Z,73.53
2023-03-11T03:06:30.232Z,72.85
2023-03-11T03:11:36.710Z,72.80
2023-03-11T03:16:43.267Z,71.03
2023-03-11T03:21:51.481Z,65.13
2023-03-11T03:26:59.902Z,66.22
2023-03-11T03:32:06.602Z,63.35
2023-03-11T03:37:19.557Z,65.03
2023-03-11T03:42:30.324Z,69.32
2023-03-11T03:47:38.180Z,54.38
2023-03-11T03:52:44.434Z,58.33
2023-03-11T03:57:50.734Z,58.35
2023-03-11T04:02:58.948Z,56.33
2023-03-11T04:08:24.881Z,46.17
2023-03-11T04:13:31.248Z,52.58
2023-03-11T04:18:38.507Z,48.20
2023-03-11T04:23:47.547Z,47.72
2023-03-11T04:28:56.465Z,54.22
2023-03-11T04:34:05.279Z,54.92
2023-03-11T04:39:12.904Z,44.83
2023-03-11T04:44:21.861Z,51.13
2023-03-11T04:49:29.586Z,48.22
2023-03-11T04:54:36.294Z,64.20
2023-03-11T04:59:43.078Z,72.18
2023-03-11T05:04:50.974Z,60.47
2023-03-11T05:09:58.237Z,59.85
2023-03-11T05:15:04.806Z,83.15
2023-03-11T05:20:11.737Z,68.47
2023-03-11T05:25:19.603Z,67.38
2023-03-11T05:30:26.498Z,69.88
2023-03-11T05:35:33.330Z,90.82
2023-03-11T05:40:40.464Z,92.80
2023-03-11T05:45:47.178Z,89.68
2023-03-11T05:50:53.962Z,82.45
2023-03-11T05:56:03.957Z,76.40
2023-03-11T06:01:15.123Z,78.78
2023-03-11T06:06:22.455Z,72.90
2023-03-11T06:11:28.969Z,43.83
2023-03-11T06:16:35.347Z,54.50
2023-03-11T06:21:42.988Z,55.10
2023-03-11T06:26:59.805Z,45.80
2023-03-11T06:32:09.508Z,53.38
2023-03-11T06:37:16.583Z,49.47
2023-03-11T06:42:25.597Z,50.75
2023-03-11T06:47:35.369Z,42.33
2023-03-11T06:52:41.789Z,48.90
2023-03-11T06:57:48.695Z,45.10
2023-03-11T07:02:55.628Z,49.80
2023-03-11T07:08:03.316Z,46.55
2023-03-11T07:13:10.295Z,45.42
2023-03-11T07:18:17.988Z,46.55
2023-03-11T07:23:25.621Z,52.00
2023-03-11T07:28:31.949Z,48.00
2023-03-11T07:33:38.199Z,49.67
2023-03-11T07:38:44.817Z,45.55
2023-03-11T07:43:50.763Z,45.95
2023-03-11T07:48:57.110Z,50.05
2023-03-11T07:54:04.184Z,47.70
2023-03-11T07:59:11.063Z,45.60
2023-03-11T08:04:18.830Z,45.65
2023-03-11T08:09:26.213Z,50.75
2023-03-11T08:14:33.026Z,43.65
2023-03-11T08:19:39.639Z,54.35
2023-03-11T08:24:45.565Z,49.10
2023-03-11T08:34:58.248Z,52.80
2023-03-11T08:40:07.645Z,53.65
2023-03-11T08:45:14.802Z,63.15
2023-03-11T08:50:22.641Z,57.47
2023-03-11T08:55:29.836Z,62.80
2023-03-11T09:00:36.323Z,67.82
2023-03-11T09:05:43.215Z,69.18
2023-03-11T09:10:49.901Z,67.50
2023-03-11T09:15:56.562Z,64.18
2023-03-11T09:21:03.556Z,76.60
2023-03-11T09:26:09.597Z,79.38
2023-03-11T09:36:23.247Z,67.07
2023-03-11T09:41:32.848Z,86.47
2023-03-11T09:46:51.075Z,86.80
2023-03-11T09:52:17.709Z,71.72
2023-03-11T10:02:49.932Z,91.35
2023-03-11T10:08:14.987Z,81.38
2023-03-11T10:14:13.537Z,82.80
2023-03-11T10:19:54.856Z,90.20
2023-03-11T10:25:33.409Z,80.38
2023-03-11T10:31:02.716Z,79.38
2023-03-11T10:36:18.940Z,76.30
2023-03-11T10:46:32.751Z,73.05
2023-03-11T10:51:38.859Z,66.97
2023-03-11T11:01:59.510Z,73.05
2023-03-11T11:07:32.859Z,79.67
2023-03-11T11:12:47.810Z,68.93
2023-03-11T11:17:57.264Z,72.93
2023-03-11T11:23:05.756Z,78.90
2023-03-11T11:28:23.111Z,74.95
2023-03-11T11:33:59.474Z,74.60
2023-03-11T11:39:14.121Z,73.57
2023-03-11T11:44:24.125Z,72.43
2023-03-11T11:49:37.605Z,85.22
2023-03-11T12:00:33.887Z,95.13
2023-03-11T12:06:06.252Z,77.72
2023-03-11T12:11:26.342Z,93.70
2023-03-11T12:16:43.427Z,88.20
2023-03-11T12:22:35.646Z,84.57
2023-03-11T12:28:02.818Z,95.95
2023-03-11T12:33:21.175Z,102.18
2023-03-11T12:38:42.251Z,104.60
2023-03-11T12:43:49.588Z,102.75
2023-03-11T12:49:17.777Z,97.30
2023-03-11T12:54:38.701Z,84.50
2023-03-11T13:00:24.743Z,87.78
2023-03-11T13:05:49.224Z,91.17
2023-03-11T13:10:58.894Z,98.47
2023-03-11T13:16:17.027Z,107.07
2023-03-11T13:21:44.019Z,94.80
2023-03-11T13:27:12.005Z,88.55
2023-03-11T13:32:36.076Z,96.05
2023-03-11T13:38:12.144Z,91.70
2023-03-11T13:43:28.586Z,86.22
2023-03-11T13:48:54.242Z,71.05
2023-03-11T13:54:50.429Z,84.72
2023-03-11T14:00:36.183Z,96.93
2023-03-11T14:06:09.683Z,84.45
2023-03-11T14:11:41.157Z,83.90
2023-03-11T14:16:56.993Z,84.43
2023-03-11T14:22:18.061Z,88.32
2023-03-11T14:27:34.544Z,83.65
2023-03-11T14:32:47.038Z,89.97
2023-03-11T14:38:02.594Z,90.68
2023-03-11T14:43:52.322Z,95.28
2023-03-11T14:49:14.336Z,97.65
2023-03-11T14:59:57.588Z,90.60
2023-03-11T15:05:29.822Z,96.05
2023-03-11T15:10:39.368Z,91.80
2023-03-11T15:15:47.947Z,93.13
2023-03-11T15:21:24.417Z,96.05
2023-03-11T15:26:34.091Z,95.27
2023-03-11T15:31:46.837Z,97.72
2023-03-11T15:36:52.841Z,91.68
2023-03-11T15:47:26.018Z,123.30
2023-03-11T15:52:37.784Z,106.60
2023-03-11T15:57:44.431Z,108.22
2023-03-11T16:02:52.729Z,95.00
2023-03-11T16:07:59.451Z,99.68
2023-03-11T16:13:06.706Z,113.50
2023-03-11T16:18:13.745Z,114.38
2023-03-11T16:23:27.204Z,116.80
2023-03-11T16:28:34.196Z,107.18
2023-03-11T16:33:40.532Z,89.72
2023-03-11T16:38:50.158Z,106.72
2023-03-11T16:44:25.598Z,97.78
2023-03-11T16:58:07.490Z,107.65
2023-03-11T17:02:31.920Z,117.75
2023-03-11T17:07:39.705Z,87.15
2023-03-11T17:12:46.342Z,99.55
2023-03-11T17:17:53.224Z,110.82
2023-03-11T17:22:59.250Z,88.65
2023-03-11T17:28:05.116Z,87.22
2023-03-11T17:33:11.100Z,89.10
2023-03-11T17:38:17.590Z,84.50
2023-03-11T17:43:23.699Z,86.80
2023-03-11T17:48:29.780Z,86.55
2023-03-11T17:58:41.104Z,90.93
2023-03-11T18:03:47.152Z,85.68
2023-03-11T18:08:53.990Z,84.85
2023-03-11T18:14:00.180Z,88.32
2023-03-11T18:19:06.202Z,90.05
2023-03-11T18:24:11.838Z,88.95
2023-03-11T18:29:17.952Z,92.70
2023-03-11T18:34:24.879Z,85.60
2023-03-11T18:39:30.492Z,82.97
2023-03-11T18:44:36.989Z,79.72
2023-03-11T18:49:42.609Z,77.93
2023-03-11T18:54:48.087Z,79.67
2023-03-11T18:59:53.602Z,82.47
2023-03-11T19:04:59.345Z,82.13
2023-03-11T19:10:05.323Z,84.57
2023-03-11T19:15:11.671Z,85.07
2023-03-11T19:20:17.205Z,88.10
2023-03-11T19:25:28.007Z,83.77
2023-03-11T19:30:33.885Z,88.22
2023-03-11T19:35:39.930Z,86.93
2023-03-11T19:45:52.111Z,85.82
2023-03-11T19:50:57.547Z,86.00
2023-03-11T19:56:05.507Z,80.07
2023-03-11T20:01:21.497Z,71.20
2023-03-11T20:11:32.693Z,83.05
2023-03-11T20:16:38.560Z,81.90
2023-03-11T20:21:45.895Z,71.00
2023-03-11T20:26:52.097Z,76.55
2023-03-11T20:37:03.213Z,81.35
2023-03-11T20:42:09.457Z,72.00
2023-03-11T20:47:14.995Z,68.45
2023-03-11T20:52:20.505Z,77.47
2023-03-11T20:57:26.702Z,76.45
2023-03-11T21:02:35.226Z,83.55
2023-03-11T21:07:41.444Z,77.38
2023-03-11T21:17:52.545Z,77.80
2023-03-11T21:28:04.010Z,84.50
2023-03-11T21:33:10.278Z,68.85
2023-03-11T21:38:17.426Z,83.03
2023-03-11T21:43:23.810Z,76.38
2023-03-11T21:48:30.082Z,75.97
2023-03-11T21:53:37.819Z,81.28
2023-03-11T21:58:44.614Z,81.70
2023-03-11T22:03:50.453Z,76.85
2023-03-11T22:08:56.534Z,76.15
2023-03-11T22:19:10.465Z,64.85
2023-03-11T22:24:16.296Z,74.97
2023-03-11T22:29:22.133Z,70.47
2023-03-11T22:34:27.719Z,76.88
2023-03-11T22:39:33.830Z,67.50
2023-03-11T22:44:39.525Z,89.22
2023-03-11T22:49:45.319Z,78.60
2023-03-11T22:54:51.510Z,78.05
2023-03-11T22:59:57.474Z,95.25
2023-03-11T23:05:03.411Z,90.88
2023-03-11T23:10:11.352Z,90.07
2023-03-11T23:15:19.892Z,80.57
2023-03-11T23:20:25.478Z,76.45
2023-03-11T23:25:31.515Z,78.70
2023-03-11T23:35:44.318Z,69.38
2023-03-11T23:40:50.291Z,83.38
2023-03-11T23:45:56.052Z,72.68
2023-03-11T23:51:03.815Z,77.03
2023-03-11T23:56:18.688Z,82.93
